createdAt,value
2018-03-18T13:14:12.276Z,51.10
2018-03-18T13:16:39.849Z,46.10
2018-03-18T13:26:21.527Z,23.20
2018-03-18T13:29:27.019Z,28.30
2018-03-18T13:31:54.557Z,35.80
2018-03-18T13:34:22.094Z,37.90
2018-03-18T13:36:50.479Z,40.90
2018-03-18T13:39:18.018Z,40.90
2018-03-18T13:41:46.379Z,42.80
2018-03-18T13:44:14.661Z,43.20
2018-03-18T13:46:42.201Z,43.30
2018-03-18T13:49:09.771Z,44.20
2018-03-18T13:51:37.336Z,44.00
2018-03-18T13:54:04.878Z,43.80
2018-03-18T13:56:32.431Z,44.60
2018-03-18T13:58:59.976Z,45.20
2018-03-18T14:01:27.529Z,45.50
2018-03-18T14:03:55.056Z,45.20
2018-03-18T14:06:22.620Z,45.70
2018-03-18T14:08:50.172Z,46.20
2018-03-18T14:11:17.707Z,45.40
2018-03-18T14:13:45.262Z,45.30
2018-03-18T14:16:12.796Z,45.00
2018-03-18T14:18:40.611Z,44.70
2018-03-18T14:21:08.115Z,44.40
2018-03-18T14:23:35.653Z,44.50
2018-03-18T14:26:03.198Z,44.60
2018-03-18T14:28:31.480Z,43.70
2018-03-18T14:30:59.028Z,43.70
2018-03-18T14:33:26.563Z,43.40
2018-03-18T14:35:54.081Z,42.80
2018-03-18T14:38:21.644Z,43.20
2018-03-18T14:40:49.195Z,42.90
2018-03-18T14:43:16.824Z,43.70
2018-03-18T14:45:44.364Z,42.80
2018-03-18T14:48:11.897Z,42.70
2018-03-18T14:50:39.440Z,41.90
2018-03-18T14:53:06.993Z,42.10
2018-03-18T14:55:34.522Z,43.10
2018-03-18T14:58:02.141Z,42.80
2018-03-18T15:00:30.460Z,43.30
2018-03-18T15:02:57.985Z,43.10
2018-03-18T15:05:26.260Z,42.70
2018-03-18T15:07:54.560Z,42.70
2018-03-18T15:10:22.089Z,42.60
2018-03-18T15:12:50.412Z,43.20
2018-03-18T15:15:17.942Z,43.20
2018-03-18T15:17:45.465Z,43.30
2018-03-18T15:20:12.983Z,44.20
2018-03-18T15:22:40.510Z,42.90
2018-03-18T15:25:08.074Z,43.10
2018-03-18T15:27:35.625Z,43.30
2018-03-18T15:30:03.128Z,42.80
2018-03-18T15:32:30.655Z,43.70
2018-03-18T15:34:58.246Z,44.30
2018-03-18T15:37:25.771Z,45.00
2018-03-18T15:39:53.338Z,45.80
2018-03-18T15:42:20.872Z,46.40
2018-03-18T15:44:48.425Z,45.90
2018-03-18T15:47:16.829Z,45.90
2018-03-18T15:49:44.321Z,45.90
2018-03-18T15:52:11.872Z,46.30
2018-03-18T15:54:39.434Z,45.80
2018-03-18T15:57:06.947Z,46.80
2018-03-18T15:59:34.495Z,46.70
2018-03-18T16:02:02.092Z,46.50
2018-03-18T16:04:31.309Z,45.30
2018-03-18T16:06:58.867Z,45.10
2018-03-18T16:09:26.389Z,45.10
2018-03-18T16:11:53.965Z,45.00
2018-03-18T16:14:21.481Z,45.00
2018-03-18T16:16:49.123Z,45.90
2018-03-18T16:19:17.396Z,45.80
2018-03-18T16:21:45.724Z,46.50
2018-03-18T16:24:13.241Z,46.10
2018-03-18T16:26:41.529Z,45.80
2018-03-18T16:29:21.910Z,45.70
2018-03-18T16:31:49.424Z,45.70
2018-03-18T16:34:16.938Z,46.60
2018-03-18T16:36:44.513Z,46.60
2018-03-18T16:39:12.235Z,45.00
2018-03-18T16:41:39.824Z,44.80
2018-03-18T16:44:07.364Z,44.30
2018-03-18T16:46:34.886Z,44.30
2018-03-18T16:49:03.202Z,45.80
2018-03-18T16:51:30.737Z,45.70
2018-03-18T16:53:59.041Z,46.30
2018-03-18T16:56:26.580Z,46.20
2018-03-18T16:58:54.160Z,46.50
2018-03-18T17:01:21.666Z,45.10
2018-03-18T17:03:49.976Z,45.30
2018-03-18T17:06:17.622Z,45.20
2018-03-18T17:08:45.152Z,45.10
2018-03-18T17:11:12.723Z,43.50
2018-03-18T17:13:41.004Z,44.80
2018-03-18T17:16:09.281Z,44.40
2018-03-18T17:18:37.680Z,43.10
2018-03-18T17:21:05.230Z,43.00
2018-03-18T17:23:32.904Z,42.80
2018-03-18T17:26:00.410Z,42.20
2018-03-18T17:28:27.924Z,43.10
2018-03-18T17:30:55.521Z,43.90
2018-03-18T17:33:23.048Z,44.50
2018-03-18T17:35:50.644Z,45.20
2018-03-18T17:38:18.189Z,44.80
2018-03-18T17:40:46.581Z,44.70
2018-03-18T17:43:14.301Z,44.30
2018-03-18T17:45:53.579Z,44.90
2018-03-18T17:48:33.129Z,44.90
2018-03-18T17:51:13.158Z,44.30
2018-03-18T17:53:52.464Z,44.30
2018-03-18T17:56:38.256Z,43.50
2018-03-18T17:59:05.804Z,43.80
2018-03-18T18:01:33.331Z,44.30
2018-03-18T18:04:01.917Z,43.50
2018-03-18T18:06:29.441Z,43.50
2018-03-18T18:08:57.736Z,43.60
2018-03-18T18:11:26.068Z,43.10
2018-03-18T18:13:53.815Z,43.10
2018-03-18T18:16:21.595Z,43.50
2018-03-18T18:18:49.154Z,43.60
2018-03-18T18:21:16.695Z,43.70
2018-03-18T18:23:44.223Z,43.90
2018-03-18T18:26:12.526Z,44.50
2018-03-18T18:28:40.074Z,44.00
2018-03-18T18:31:07.611Z,43.60
2018-03-18T18:33:35.993Z,42.10
2018-03-18T18:36:03.591Z,42.10
2018-03-18T18:38:32.406Z,42.10
2018-03-18T18:40:59.995Z,41.90
2018-03-18T18:43:27.529Z,42.20
2018-03-18T18:45:55.253Z,42.30
2018-03-18T18:48:22.938Z,42.80
2018-03-18T18:50:50.478Z,42.20
2018-03-18T18:53:18.007Z,42.50
2018-03-18T18:55:45.822Z,42.30
2018-03-18T18:58:15.364Z,42.70
2018-03-18T19:00:43.622Z,42.00
2018-03-18T19:03:11.905Z,41.70
2018-03-18T19:05:40.252Z,42.20
2018-03-18T19:08:08.072Z,42.20
2018-03-18T19:10:36.153Z,41.30
2018-03-18T19:13:03.694Z,40.50
2018-03-18T19:15:31.263Z,40.40
2018-03-18T19:17:58.833Z,40.20
2018-03-18T19:20:26.434Z,40.10
2018-03-18T19:22:54.065Z,39.90
2018-03-18T19:25:21.651Z,40.70
2018-03-18T19:27:49.314Z,40.00
2018-03-18T19:30:17.698Z,39.40
2018-03-18T19:32:45.998Z,39.40
2018-03-18T19:35:14.840Z,39.30
2018-03-18T19:37:42.359Z,39.50
2018-03-18T19:40:09.917Z,39.50
2018-03-18T19:42:37.449Z,39.60
2018-03-18T19:45:06.132Z,39.00
2018-03-18T19:47:34.421Z,38.90
2018-03-18T19:50:01.992Z,38.90
2018-03-18T19:52:29.548Z,39.00
2018-03-18T19:54:57.063Z,38.60
2018-03-18T19:57:24.597Z,38.10
2018-03-18T19:59:52.442Z,38.00
2018-03-18T20:02:20.525Z,37.80
2018-03-18T20:04:48.931Z,37.90
2018-03-18T20:07:17.339Z,38.00
2018-03-18T20:09:44.905Z,37.90
2018-03-18T20:12:12.424Z,38.00
2018-03-18T20:14:39.995Z,38.20
2018-03-18T20:17:08.302Z,37.60
2018-03-18T20:19:35.959Z,37.60
2018-03-18T20:22:03.580Z,37.30
2018-03-18T20:24:31.364Z,37.20
2018-03-18T20:27:10.796Z,37.00
2018-03-18T20:29:38.403Z,36.90
2018-03-18T20:32:06.050Z,37.20
2018-03-18T20:34:33.660Z,37.30
2018-03-18T20:37:01.956Z,37.90
2018-03-18T20:39:30.766Z,38.50
2018-03-18T20:41:58.415Z,38.50
2018-03-18T20:44:26.694Z,39.10
2018-03-18T20:46:55.036Z,39.40
2018-03-18T20:49:22.568Z,39.40
2018-03-18T20:51:50.105Z,39.90
2018-03-18T20:54:17.647Z,39.90
2018-03-18T20:56:45.351Z,39.90
2018-03-18T20:59:12.974Z,40.10
2018-03-18T21:01:40.566Z,39.40
2018-03-18T21:04:08.162Z,39.50
2018-03-18T21:06:35.720Z,39.10
2018-03-18T21:09:03.277Z,38.80
2018-03-18T21:11:30.850Z,38.80
2018-03-18T21:13:59.187Z,39.10
2018-03-18T21:16:26.739Z,39.10
2018-03-18T21:18:54.280Z,39.20
2018-03-18T21:21:21.853Z,39.40
2018-03-18T21:23:49.401Z,39.40
2018-03-18T21:26:17.052Z,39.70
2018-03-18T21:28:44.575Z,39.40
2018-03-18T21:31:12.942Z,39.20
2018-03-18T21:33:40.567Z,39.20
2018-03-18T21:36:08.096Z,39.10
2018-03-18T21:38:35.754Z,38.70
2018-03-18T21:41:03.308Z,38.40
2018-03-18T21:43:31.334Z,38.50
2018-03-18T21:45:59.355Z,38.20
2018-03-18T21:48:29.254Z,38.20
2018-03-18T21:50:56.788Z,37.80
2018-03-18T21:53:25.089Z,37.50
2018-03-18T21:55:52.954Z,37.40
2018-03-18T21:58:21.969Z,37.10
2018-03-18T22:00:49.509Z,37.30
2018-03-18T22:03:17.048Z,37.40
2018-03-18T22:05:45.368Z,37.60
2018-03-18T22:08:12.888Z,37.60
2018-03-18T22:10:40.492Z,37.30
2018-03-18T22:13:08.003Z,37.40
2018-03-18T22:15:36.331Z,37.80
2018-03-18T22:18:03.875Z,37.80
2018-03-18T22:20:31.395Z,37.80
2018-03-18T22:22:59.759Z,38.00
2018-03-18T22:25:28.107Z,37.80
2018-03-18T22:27:55.624Z,37.80
2018-03-18T22:30:23.152Z,37.80
2018-03-18T22:32:51.518Z,38.70
2018-03-18T22:35:19.050Z,38.30
2018-03-18T22:37:46.583Z,37.60
2018-03-18T22:40:14.127Z,37.80
2018-03-18T22:42:41.644Z,38.00
2018-03-18T22:45:09.164Z,38.00
2018-03-18T22:47:36.854Z,38.50
2018-03-18T22:50:04.393Z,38.20
2018-03-18T22:52:31.963Z,37.80
2018-03-18T22:54:59.491Z,38.10
2018-03-18T22:57:27.028Z,38.80
2018-03-18T22:59:54.552Z,38.90
2018-03-18T23:02:22.225Z,38.50
2018-03-18T23:04:49.668Z,38.60
2018-03-18T23:07:17.187Z,38.50
2018-03-18T23:09:44.718Z,39.10
2018-03-18T23:12:13.038Z,39.60
2018-03-18T23:14:40.605Z,39.50
2018-03-18T23:17:08.225Z,39.50
2018-03-18T23:19:35.744Z,39.20
2018-03-18T23:22:03.331Z,39.50
2018-03-18T23:24:30.875Z,39.30
2018-03-18T23:26:59.171Z,39.10
2018-03-18T23:29:26.819Z,39.10
2018-03-18T23:31:54.487Z,39.50
2018-03-18T23:34:22.796Z,39.40
2018-03-18T23:36:50.344Z,39.40
2018-03-18T23:39:17.909Z,39.40
2018-03-18T23:41:45.821Z,39.40
2018-03-18T23:44:14.113Z,40.40
2018-03-18T23:46:41.674Z,40.40
2018-03-18T23:49:09.276Z,40.50
2018-03-18T23:51:36.801Z,40.50
2018-03-18T23:54:04.376Z,40.70
2018-03-18T23:56:31.898Z,40.20
2018-03-18T23:59:00.191Z,40.60
